EWG72D LOWS-EDDH
Flight info
| Callsign | EWG72D |
|---|---|
| Flight time | 1h 3m |
| Altitude | 38000 |
| Route | INROM DCT SIMBA Y700 NENUM DCT EPTEU L604 RUDNO M736 AKOSI DCT ABGUS DCT DIRBO T902 RARUP |
| Aircraft | A319/M-SDE3FGHIRWY/LB1 |
Departure
| Time | 2026-04-20 15:29 |
|---|---|
| Airport | Salzburg Airport (LOWS) |
Arrival
| Time | 2026-04-20 16:32 |
|---|---|
| Airport | Hamburg Helmut Schmidt Airport (EDDH) |
| Time | Latitude | Longitude | Altitude | Speed | Heading |
|---|---|---|---|---|---|
| 2026-04-20 15:12 | 47.79231 | 13.00086 | 1416 ft | 0 kts | 102° |
| 2026-04-20 15:21 | 47.79233 | 13.00069 | 1416 ft | 2 kts | 101° |
| 2026-04-20 15:22 | 47.79236 | 13.00047 | 1416 ft | 2 kts | 102° |
| 2026-04-20 15:22 | 47.79239 | 13.00026 | 1416 ft | 2 kts | 102° |
| 2026-04-20 15:22 | 47.79242 | 13.00004 | 1416 ft | 2 kts | 102° |
| 2026-04-20 15:22 | 47.79245 | 12.99982 | 1417 ft | 2 kts | 101° |
| 2026-04-20 15:23 | 47.79252 | 12.99963 | 1418 ft | 1 kts | 145° |
| 2026-04-20 15:23 | 47.79257 | 12.99959 | 1418 ft | 1 kts | 161° |
| 2026-04-20 15:23 | 47.79261 | 12.99957 | 1418 ft | 0 kts | 156° |
| 2026-04-20 15:25 | 47.79260 | 12.99957 | 1418 ft | 0 kts | 156° |
| 2026-04-20 15:25 | 47.79223 | 12.99983 | 1417 ft | 11 kts | 155° |
| 2026-04-20 15:25 | 47.79144 | 13.00036 | 1416 ft | 12 kts | 156° |
| 2026-04-20 15:25 | 47.79062 | 13.00088 | 1416 ft | 14 kts | 159° |
| 2026-04-20 15:26 | 47.78966 | 13.00154 | 1416 ft | 14 kts | 134° |
| 2026-04-20 15:26 | 47.78952 | 13.00305 | 1413 ft | 16 kts | 94° |
| 2026-04-20 15:26 | 47.78881 | 13.00412 | 1412 ft | 15 kts | 160° |
| 2026-04-20 15:26 | 47.78735 | 13.00505 | 1412 ft | 28 kts | 157° |
| 2026-04-20 15:27 | 47.78555 | 13.00618 | 1412 ft | 26 kts | 156° |
| 2026-04-20 15:27 | 47.78392 | 13.00721 | 1414 ft | 24 kts | 157° |
| 2026-04-20 15:27 | 47.78247 | 13.00819 | 1415 ft | 21 kts | 149° |
| 2026-04-20 15:27 | 47.78183 | 13.00990 | 1414 ft | 20 kts | 73° |
| 2026-04-20 15:28 | 47.78270 | 13.01070 | 1412 ft | 20 kts | 335° |
| 2026-04-20 15:28 | 47.78628 | 13.00842 | 1410 ft | 90 kts | 336° |
| 2026-04-20 15:28 | 47.79404 | 13.00350 | 1410 ft | 149 kts | 337° |
| 2026-04-20 15:28 | 47.80409 | 12.99717 | 1919 ft | 154 kts | 336° |
| 2026-04-20 15:29 | 47.81338 | 12.99096 | 2661 ft | 147 kts | 335° |
| 2026-04-20 15:29 | 47.82313 | 12.98914 | 3205 ft | 153 kts | 21° |
| 2026-04-20 15:29 | 47.83210 | 12.99890 | 3598 ft | 169 kts | 44° |
| 2026-04-20 15:29 | 47.84152 | 13.00819 | 4003 ft | 167 kts | 1° |
| 2026-04-20 15:30 | 47.85273 | 13.00421 | 4425 ft | 173 kts | 335° |
| 2026-04-20 15:30 | 47.86443 | 12.99760 | 4840 ft | 187 kts | 339° |
| 2026-04-20 15:30 | 47.87730 | 12.99124 | 5223 ft | 206 kts | 339° |
| 2026-04-20 15:30 | 47.89163 | 12.98414 | 5587 ft | 228 kts | 339° |
| 2026-04-20 15:31 | 47.90731 | 12.97656 | 6080 ft | 245 kts | 340° |
| 2026-04-20 15:31 | 47.92383 | 12.96871 | 6654 ft | 259 kts | 340° |
| 2026-04-20 15:31 | 47.94146 | 12.96050 | 7372 ft | 269 kts | 340° |
| 2026-04-20 15:31 | 47.95917 | 12.95232 | 8314 ft | 269 kts | 339° |
| 2026-04-20 15:32 | 47.97670 | 12.94421 | 9258 ft | 269 kts | 338° |
| 2026-04-20 15:32 | 47.99466 | 12.93570 | 10064 ft | 272 kts | 337° |
| 2026-04-20 15:32 | 48.01260 | 12.92685 | 10799 ft | 277 kts | 336° |
| 2026-04-20 15:32 | 48.03122 | 12.91754 | 11416 ft | 286 kts | 337° |
| 2026-04-20 15:33 | 48.05015 | 12.90844 | 12147 ft | 290 kts | 337° |
| 2026-04-20 15:33 | 48.06956 | 12.89921 | 12893 ft | 292 kts | 337° |
| 2026-04-20 15:33 | 48.08897 | 12.89001 | 13642 ft | 294 kts | 337° |
| 2026-04-20 15:33 | 48.10854 | 12.88070 | 14385 ft | 296 kts | 337° |
| 2026-04-20 15:34 | 48.12795 | 12.87149 | 15078 ft | 298 kts | 337° |
| 2026-04-20 15:34 | 48.14791 | 12.86201 | 15790 ft | 300 kts | 336° |
| 2026-04-20 15:34 | 48.16806 | 12.85240 | 16506 ft | 301 kts | 337° |
| 2026-04-20 15:34 | 48.18818 | 12.84274 | 17171 ft | 304 kts | 336° |
| 2026-04-20 15:35 | 48.20845 | 12.83299 | 17821 ft | 306 kts | 336° |
| 2026-04-20 15:35 | 48.22879 | 12.82318 | 18475 ft | 308 kts | 336° |
| 2026-04-20 15:35 | 48.24923 | 12.81333 | 19107 ft | 310 kts | 336° |
| 2026-04-20 15:35 | 48.26971 | 12.80346 | 19718 ft | 313 kts | 336° |
| 2026-04-20 15:36 | 48.29034 | 12.79347 | 20296 ft | 316 kts | 336° |
| 2026-04-20 15:36 | 48.31138 | 12.78331 | 20883 ft | 318 kts | 336° |
| 2026-04-20 15:36 | 48.33275 | 12.77298 | 21468 ft | 320 kts | 336° |
| 2026-04-20 15:36 | 48.35370 | 12.76282 | 22056 ft | 321 kts | 336° |
| 2026-04-20 15:37 | 48.37520 | 12.75240 | 22624 ft | 323 kts | 336° |
| 2026-04-20 15:37 | 48.39682 | 12.74189 | 23159 ft | 325 kts | 336° |
| 2026-04-20 15:37 | 48.41862 | 12.73128 | 23679 ft | 328 kts | 336° |
| 2026-04-20 15:37 | 48.44114 | 12.72029 | 24156 ft | 331 kts | 336° |
| 2026-04-20 15:38 | 48.46305 | 12.70962 | 24633 ft | 333 kts | 336° |
| 2026-04-20 15:38 | 48.48550 | 12.69865 | 25113 ft | 335 kts | 336° |
| 2026-04-20 15:38 | 48.50796 | 12.68772 | 25619 ft | 336 kts | 335° |
| 2026-04-20 15:38 | 48.53037 | 12.67678 | 26049 ft | 338 kts | 335° |
| 2026-04-20 15:39 | 48.55264 | 12.66589 | 26484 ft | 340 kts | 335° |
| 2026-04-20 15:39 | 48.57544 | 12.65470 | 26912 ft | 341 kts | 335° |
| 2026-04-20 15:39 | 48.59792 | 12.64371 | 27343 ft | 342 kts | 335° |
| 2026-04-20 15:39 | 48.62054 | 12.63263 | 27757 ft | 343 kts | 335° |
| 2026-04-20 15:40 | 48.64331 | 12.62144 | 28141 ft | 345 kts | 335° |
| 2026-04-20 15:40 | 48.66611 | 12.61023 | 28507 ft | 347 kts | 335° |
| 2026-04-20 15:40 | 48.68752 | 12.59971 | 28851 ft | 348 kts | 335° |
| 2026-04-20 15:40 | 48.71195 | 12.58769 | 29229 ft | 350 kts | 335° |
| 2026-04-20 15:41 | 48.73523 | 12.57624 | 29583 ft | 351 kts | 335° |
| 2026-04-20 15:41 | 48.75850 | 12.56477 | 29942 ft | 352 kts | 335° |
| 2026-04-20 15:41 | 48.78198 | 12.55317 | 30278 ft | 353 kts | 334° |
| 2026-04-20 15:41 | 48.80556 | 12.54154 | 30624 ft | 354 kts | 335° |
| 2026-04-20 15:42 | 48.82898 | 12.52990 | 30950 ft | 355 kts | 335° |
| 2026-04-20 15:42 | 48.85264 | 12.51814 | 31192 ft | 358 kts | 335° |
| 2026-04-20 15:42 | 48.87611 | 12.50650 | 31425 ft | 361 kts | 335° |
| 2026-04-20 15:42 | 48.90054 | 12.49434 | 31533 ft | 367 kts | 335° |
| 2026-04-20 15:43 | 48.92510 | 12.48212 | 31643 ft | 374 kts | 335° |
| 2026-04-20 15:43 | 48.95010 | 12.46967 | 31752 ft | 380 kts | 336° |
| 2026-04-20 15:43 | 48.97557 | 12.45698 | 31916 ft | 384 kts | 335° |
| 2026-04-20 15:43 | 49.00108 | 12.44430 | 32153 ft | 386 kts | 336° |
| 2026-04-20 15:44 | 49.02691 | 12.43141 | 32406 ft | 388 kts | 336° |
| 2026-04-20 15:44 | 49.05275 | 12.41854 | 32648 ft | 390 kts | 336° |
| 2026-04-20 15:44 | 49.07861 | 12.40560 | 32939 ft | 391 kts | 337° |
| 2026-04-20 15:44 | 49.10435 | 12.39272 | 33172 ft | 392 kts | 337° |
| 2026-04-20 15:45 | 49.13059 | 12.37970 | 33438 ft | 391 kts | 337° |
| 2026-04-20 15:45 | 49.15634 | 12.36684 | 33685 ft | 391 kts | 337° |
| 2026-04-20 15:45 | 49.18241 | 12.35381 | 33878 ft | 393 kts | 337° |
| 2026-04-20 15:45 | 49.20849 | 12.34067 | 34086 ft | 395 kts | 337° |
| 2026-04-20 15:46 | 49.23443 | 12.32750 | 34347 ft | 396 kts | 336° |
| 2026-04-20 15:46 | 49.26054 | 12.31426 | 34593 ft | 396 kts | 337° |
| 2026-04-20 15:46 | 49.28687 | 12.30091 | 34824 ft | 397 kts | 337° |
| 2026-04-20 15:46 | 49.31319 | 12.28758 | 35062 ft | 398 kts | 338° |
| 2026-04-20 15:47 | 49.33984 | 12.27407 | 35273 ft | 400 kts | 338° |
| 2026-04-20 15:47 | 49.36634 | 12.26065 | 35492 ft | 401 kts | 338° |
| 2026-04-20 15:47 | 49.39325 | 12.24703 | 35745 ft | 401 kts | 338° |
| 2026-04-20 15:47 | 49.41938 | 12.23377 | 35988 ft | 401 kts | 338° |
| 2026-04-20 15:48 | 49.44585 | 12.22034 | 36182 ft | 402 kts | 338° |
| 2026-04-20 15:48 | 49.47281 | 12.20661 | 36330 ft | 404 kts | 338° |
| 2026-04-20 15:48 | 49.49954 | 12.19298 | 36449 ft | 406 kts | 338° |
| 2026-04-20 15:48 | 49.52660 | 12.17918 | 36596 ft | 408 kts | 339° |
| 2026-04-20 15:49 | 49.55336 | 12.16553 | 36755 ft | 409 kts | 339° |
| 2026-04-20 15:49 | 49.58059 | 12.15163 | 36891 ft | 411 kts | 339° |
| 2026-04-20 15:49 | 49.60799 | 12.13760 | 37026 ft | 413 kts | 339° |
| 2026-04-20 15:49 | 49.63516 | 12.12367 | 37155 ft | 414 kts | 339° |
| 2026-04-20 15:50 | 49.66243 | 12.10969 | 37283 ft | 415 kts | 339° |
| 2026-04-20 15:50 | 49.68995 | 12.09557 | 37401 ft | 417 kts | 339° |
| 2026-04-20 15:50 | 49.71757 | 12.08157 | 37524 ft | 418 kts | 340° |
| 2026-04-20 15:50 | 49.74562 | 12.06854 | 37635 ft | 420 kts | 341° |
| 2026-04-20 15:51 | 49.77358 | 12.05592 | 37709 ft | 422 kts | 341° |
| 2026-04-20 15:51 | 49.83030 | 12.03029 | 37876 ft | 425 kts | 341° |
| 2026-04-20 15:51 | 49.85849 | 12.01747 | 37987 ft | 426 kts | 341° |
| 2026-04-20 15:52 | 49.88689 | 12.00449 | 38043 ft | 427 kts | 341° |
| 2026-04-20 15:52 | 49.94388 | 11.97837 | 38050 ft | 427 kts | 341° |
| 2026-04-20 15:53 | 50.02962 | 11.93884 | 38048 ft | 428 kts | 341° |
| 2026-04-20 15:53 | 50.08714 | 11.91223 | 38056 ft | 428 kts | 341° |
| 2026-04-20 15:54 | 50.14404 | 11.88593 | 38064 ft | 428 kts | 341° |
| 2026-04-20 15:54 | 50.20153 | 11.85931 | 38072 ft | 428 kts | 341° |
| 2026-04-20 15:55 | 50.25882 | 11.83265 | 38078 ft | 428 kts | 341° |
| 2026-04-20 15:55 | 50.31606 | 11.80593 | 38078 ft | 428 kts | 341° |
| 2026-04-20 15:56 | 50.37377 | 11.77889 | 38081 ft | 429 kts | 341° |
| 2026-04-20 15:56 | 50.43136 | 11.75183 | 38073 ft | 429 kts | 342° |
| 2026-04-20 15:57 | 50.48830 | 11.72502 | 38073 ft | 428 kts | 342° |
| 2026-04-20 15:57 | 50.54554 | 11.69799 | 38073 ft | 428 kts | 342° |
| 2026-04-20 15:58 | 50.60253 | 11.67101 | 38073 ft | 428 kts | 342° |
| 2026-04-20 15:58 | 50.65958 | 11.64392 | 38076 ft | 429 kts | 342° |
| 2026-04-20 15:59 | 50.71650 | 11.61686 | 38082 ft | 430 kts | 342° |
| 2026-04-20 15:59 | 50.77380 | 11.58952 | 38089 ft | 430 kts | 342° |
| 2026-04-20 16:00 | 50.83085 | 11.56224 | 38091 ft | 429 kts | 342° |
| 2026-04-20 16:00 | 50.88852 | 11.53457 | 38091 ft | 429 kts | 342° |
| 2026-04-20 16:01 | 50.94576 | 11.50704 | 38091 ft | 429 kts | 342° |
| 2026-04-20 16:01 | 51.00294 | 11.47949 | 38090 ft | 430 kts | 342° |
| 2026-04-20 16:02 | 51.06008 | 11.45190 | 38093 ft | 431 kts | 342° |
| 2026-04-20 16:02 | 51.11750 | 11.42410 | 38099 ft | 431 kts | 342° |
| 2026-04-20 16:03 | 51.17505 | 11.39629 | 38101 ft | 431 kts | 342° |
| 2026-04-20 16:03 | 51.23202 | 11.36862 | 38102 ft | 431 kts | 342° |
| 2026-04-20 16:04 | 51.28953 | 11.34051 | 38102 ft | 430 kts | 341° |
| 2026-04-20 16:04 | 51.34619 | 11.31024 | 38100 ft | 431 kts | 335° |
| 2026-04-20 16:05 | 51.40054 | 11.26858 | 38105 ft | 439 kts | 333° |
| 2026-04-20 16:05 | 51.45549 | 11.22523 | 38104 ft | 442 kts | 333° |
| 2026-04-20 16:06 | 51.51062 | 11.18191 | 38105 ft | 442 kts | 333° |
| 2026-04-20 16:06 | 51.56527 | 11.13903 | 38109 ft | 442 kts | 333° |
| 2026-04-20 16:07 | 51.62088 | 11.09534 | 37750 ft | 442 kts | 333° |
| 2026-04-20 16:07 | 51.64881 | 11.07335 | 37277 ft | 443 kts | 333° |
| 2026-04-20 16:07 | 51.67619 | 11.05176 | 36671 ft | 445 kts | 333° |
| 2026-04-20 16:08 | 51.70378 | 11.02998 | 36139 ft | 443 kts | 334° |
| 2026-04-20 16:08 | 51.73144 | 11.00813 | 35567 ft | 442 kts | 334° |
| 2026-04-20 16:08 | 51.75921 | 10.98616 | 34951 ft | 443 kts | 334° |
| 2026-04-20 16:08 | 51.78701 | 10.96414 | 34306 ft | 444 kts | 334° |
| 2026-04-20 16:09 | 51.81483 | 10.94207 | 33745 ft | 446 kts | 334° |
| 2026-04-20 16:09 | 51.84265 | 10.91994 | 33201 ft | 447 kts | 335° |
| 2026-04-20 16:09 | 51.87016 | 10.89804 | 32658 ft | 449 kts | 335° |
| 2026-04-20 16:09 | 51.89845 | 10.87549 | 32091 ft | 450 kts | 335° |
| 2026-04-20 16:10 | 51.92627 | 10.85329 | 31500 ft | 452 kts | 336° |
| 2026-04-20 16:10 | 51.95449 | 10.83076 | 30685 ft | 453 kts | 336° |
| 2026-04-20 16:10 | 51.98274 | 10.80820 | 29763 ft | 455 kts | 336° |
| 2026-04-20 16:10 | 52.01097 | 10.78563 | 28839 ft | 456 kts | 336° |
| 2026-04-20 16:11 | 52.03959 | 10.76269 | 28234 ft | 458 kts | 336° |
| 2026-04-20 16:11 | 52.06820 | 10.73974 | 27690 ft | 460 kts | 336° |
| 2026-04-20 16:11 | 52.09669 | 10.71684 | 27160 ft | 462 kts | 336° |
| 2026-04-20 16:11 | 52.12586 | 10.69342 | 26622 ft | 463 kts | 336° |
| 2026-04-20 16:12 | 52.15490 | 10.67014 | 26119 ft | 464 kts | 336° |
| 2026-04-20 16:12 | 52.18388 | 10.64685 | 25628 ft | 463 kts | 336° |
| 2026-04-20 16:12 | 52.21243 | 10.62378 | 25243 ft | 459 kts | 336° |
| 2026-04-20 16:12 | 52.24080 | 10.60080 | 24716 ft | 455 kts | 336° |
| 2026-04-20 16:13 | 52.26878 | 10.57809 | 24197 ft | 451 kts | 336° |
| 2026-04-20 16:13 | 52.29665 | 10.55546 | 23689 ft | 448 kts | 336° |
| 2026-04-20 16:13 | 52.32470 | 10.53264 | 23172 ft | 445 kts | 336° |
| 2026-04-20 16:13 | 52.35200 | 10.51040 | 22667 ft | 442 kts | 336° |
| 2026-04-20 16:14 | 52.37948 | 10.48798 | 22149 ft | 439 kts | 336° |
| 2026-04-20 16:14 | 52.40646 | 10.46594 | 21638 ft | 436 kts | 336° |
| 2026-04-20 16:14 | 52.43367 | 10.44367 | 21149 ft | 433 kts | 336° |
| 2026-04-20 16:14 | 52.46047 | 10.42171 | 20658 ft | 430 kts | 336° |
| 2026-04-20 16:15 | 52.48711 | 10.39986 | 20171 ft | 428 kts | 336° |
| 2026-04-20 16:15 | 52.51354 | 10.37814 | 19676 ft | 425 kts | 336° |
| 2026-04-20 16:15 | 52.53983 | 10.35651 | 19189 ft | 423 kts | 336° |
| 2026-04-20 16:15 | 52.56593 | 10.33495 | 18689 ft | 420 kts | 335° |
| 2026-04-20 16:16 | 52.59172 | 10.31350 | 18182 ft | 418 kts | 335° |
| 2026-04-20 16:16 | 52.61756 | 10.29201 | 17711 ft | 415 kts | 335° |
| 2026-04-20 16:16 | 52.64335 | 10.27059 | 17225 ft | 412 kts | 335° |
| 2026-04-20 16:16 | 52.66870 | 10.24954 | 16733 ft | 409 kts | 335° |
| 2026-04-20 16:17 | 52.69378 | 10.22870 | 16260 ft | 406 kts | 335° |
| 2026-04-20 16:17 | 52.71892 | 10.20782 | 15769 ft | 404 kts | 335° |
| 2026-04-20 16:17 | 52.74369 | 10.18722 | 15321 ft | 401 kts | 335° |
| 2026-04-20 16:17 | 52.76875 | 10.16633 | 14855 ft | 398 kts | 336° |
| 2026-04-20 16:18 | 52.79320 | 10.14594 | 14449 ft | 395 kts | 336° |
| 2026-04-20 16:18 | 52.81758 | 10.12558 | 14006 ft | 393 kts | 336° |
| 2026-04-20 16:18 | 52.84215 | 10.10504 | 13501 ft | 391 kts | 336° |
| 2026-04-20 16:18 | 52.86626 | 10.08488 | 13057 ft | 389 kts | 336° |
| 2026-04-20 16:19 | 52.88997 | 10.06502 | 12626 ft | 387 kts | 336° |
| 2026-04-20 16:19 | 52.91414 | 10.04475 | 12183 ft | 384 kts | 336° |
| 2026-04-20 16:19 | 52.93776 | 10.02489 | 11797 ft | 382 kts | 336° |
| 2026-04-20 16:19 | 52.96167 | 10.00477 | 11396 ft | 378 kts | 336° |
| 2026-04-20 16:20 | 52.98472 | 9.98534 | 10997 ft | 371 kts | 336° |
| 2026-04-20 16:20 | 53.00753 | 9.96608 | 10607 ft | 364 kts | 336° |
| 2026-04-20 16:20 | 53.02988 | 9.94721 | 10235 ft | 358 kts | 336° |
| 2026-04-20 16:20 | 53.05206 | 9.92845 | 9831 ft | 353 kts | 336° |
| 2026-04-20 16:21 | 53.07362 | 9.91021 | 9423 ft | 348 kts | 336° |
| 2026-04-20 16:21 | 53.09520 | 9.89188 | 9118 ft | 340 kts | 336° |
| 2026-04-20 16:21 | 53.11592 | 9.87417 | 8853 ft | 333 kts | 336° |
| 2026-04-20 16:21 | 53.13631 | 9.85680 | 8580 ft | 326 kts | 336° |
| 2026-04-20 16:22 | 53.15615 | 9.84001 | 8301 ft | 319 kts | 336° |
| 2026-04-20 16:22 | 53.17574 | 9.82354 | 8011 ft | 314 kts | 336° |
| 2026-04-20 16:22 | 53.19516 | 9.80733 | 7663 ft | 311 kts | 337° |
| 2026-04-20 16:22 | 53.21442 | 9.79123 | 7319 ft | 308 kts | 337° |
| 2026-04-20 16:23 | 53.23346 | 9.77512 | 6957 ft | 306 kts | 336° |
| 2026-04-20 16:23 | 53.25233 | 9.75896 | 6539 ft | 303 kts | 336° |
| 2026-04-20 16:23 | 53.27093 | 9.74282 | 6063 ft | 300 kts | 336° |
| 2026-04-20 16:23 | 53.28923 | 9.72627 | 5619 ft | 297 kts | 335° |
| 2026-04-20 16:24 | 53.30710 | 9.71017 | 5306 ft | 289 kts | 338° |
| 2026-04-20 16:24 | 53.32484 | 9.69545 | 4992 ft | 282 kts | 339° |
| 2026-04-20 16:24 | 53.34295 | 9.68401 | 4702 ft | 271 kts | 356° |
| 2026-04-20 16:24 | 53.36132 | 9.68316 | 4419 ft | 260 kts | 7° |
| 2026-04-20 16:25 | 53.37902 | 9.68461 | 4186 ft | 247 kts | 7° |
| 2026-04-20 16:25 | 53.39587 | 9.68586 | 4017 ft | 247 kts | 7° |
| 2026-04-20 16:25 | 53.41312 | 9.68683 | 3884 ft | 249 kts | 6° |
| 2026-04-20 16:25 | 53.43050 | 9.68675 | 3791 ft | 247 kts | 5° |
| 2026-04-20 16:26 | 53.44754 | 9.68619 | 3668 ft | 244 kts | 4° |
| 2026-04-20 16:26 | 53.46420 | 9.68537 | 3509 ft | 238 kts | 4° |
| 2026-04-20 16:26 | 53.48032 | 9.68750 | 3261 ft | 227 kts | 25° |
| 2026-04-20 16:26 | 53.49251 | 9.70248 | 3104 ft | 213 kts | 53° |
| 2026-04-20 16:27 | 53.50102 | 9.72219 | 2967 ft | 207 kts | 57° |
| 2026-04-20 16:27 | 53.50933 | 9.74169 | 2932 ft | 199 kts | 54° |
| 2026-04-20 16:27 | 53.51770 | 9.75957 | 2955 ft | 196 kts | 53° |
| 2026-04-20 16:27 | 53.52637 | 9.77728 | 2931 ft | 194 kts | 52° |
| 2026-04-20 16:28 | 53.53493 | 9.79461 | 2682 ft | 195 kts | 52° |
| 2026-04-20 16:28 | 53.54346 | 9.81184 | 2403 ft | 188 kts | 52° |
| 2026-04-20 16:28 | 53.55163 | 9.82835 | 2155 ft | 180 kts | 52° |
| 2026-04-20 16:28 | 53.55940 | 9.84416 | 1895 ft | 173 kts | 53° |
| 2026-04-20 16:29 | 53.56672 | 9.85893 | 1746 ft | 152 kts | 53° |
| 2026-04-20 16:29 | 53.57309 | 9.87196 | 1580 ft | 138 kts | 52° |
| 2026-04-20 16:29 | 53.57898 | 9.88398 | 1377 ft | 130 kts | 51° |
| 2026-04-20 16:29 | 53.58451 | 9.89525 | 1195 ft | 121 kts | 50° |
| 2026-04-20 16:30 | 53.58986 | 9.90614 | 1033 ft | 121 kts | 50° |
| 2026-04-20 16:30 | 53.59522 | 9.91701 | 875 ft | 120 kts | 51° |
| 2026-04-20 16:30 | 53.60055 | 9.92781 | 703 ft | 121 kts | 52° |
| 2026-04-20 16:30 | 53.60596 | 9.93872 | 527 ft | 121 kts | 51° |
| 2026-04-20 16:31 | 53.61132 | 9.94951 | 350 ft | 120 kts | 52° |
| 2026-04-20 16:31 | 53.61654 | 9.96041 | 199 ft | 119 kts | 50° |
| 2026-04-20 16:31 | 53.62174 | 9.97089 | 77 ft | 113 kts | 49° |
| 2026-04-20 16:31 | 53.62629 | 9.98000 | 62 ft | 82 kts | 49° |
| 2026-04-20 16:32 | 53.62901 | 9.98550 | 62 ft | 47 kts | 50° |
| 2026-04-20 16:32 | 53.63092 | 9.98933 | 62 ft | 40 kts | 50° |
| 2026-04-20 16:32 | 53.63258 | 9.99270 | 62 ft | 34 kts | 53° |
| 2026-04-20 16:32 | 53.63285 | 9.99570 | 62 ft | 16 kts | 100° |
| 2026-04-20 16:33 | 53.63277 | 9.99659 | 61 ft | 0 kts | 101° |
| 2026-04-20 16:33 | 53.63277 | 9.99662 | 61 ft | 1 kts | 101° |
| 2026-04-20 16:33 | 53.63279 | 9.99765 | 61 ft | 13 kts | 60° |
| 2026-04-20 16:34 | 53.63341 | 9.99889 | 61 ft | 14 kts | 50° |
| 2026-04-20 16:34 | 53.63406 | 10.00020 | 61 ft | 15 kts | 50° |
| 2026-04-20 16:34 | 53.63397 | 10.00157 | 61 ft | 15 kts | 171° |
| 2026-04-20 16:34 | 53.63368 | 10.00242 | 61 ft | 11 kts | 82° |
| 2026-04-20 16:35 | 53.63373 | 10.00344 | 61 ft | 0 kts | 86° |